sensor_id;sensor_type;location;lat;lon;timestamp;P1;durP1;ratioP1;P2;durP2;ratioP2
7479;SDS011;3781;42.272;22.658;2022-08-03T00:02:12;0.37;;;0.37;;
7479;SDS011;3781;42.272;22.658;2022-08-03T00:04:39;0.40;;;0.40;;
7479;SDS011;3781;42.272;22.658;2022-08-03T00:07:06;0.50;;;0.40;;
7479;SDS011;3781;42.272;22.658;2022-08-03T00:09:32;0.70;;;0.70;;
7479;SDS011;3781;42.272;22.658;2022-08-03T00:11:59;0.50;;;0.50;;
7479;SDS011;3781;42.272;22.658;2022-08-03T00:14:26;0.43;;;0.43;;
7479;SDS011;3781;42.272;22.658;2022-08-03T00:16:54;0.20;;;0.20;;
7479;SDS011;3781;42.272;22.658;2022-08-03T00:19:21;0.33;;;0.33;;
7479;SDS011;3781;42.272;22.658;2022-08-03T00:21:48;1.90;;;0.30;;
7479;SDS011;3781;42.272;22.658;2022-08-03T00:24:15;0.37;;;0.37;;
7479;SDS011;3781;42.272;22.658;2022-08-03T00:26:42;0.70;;;0.70;;
7479;SDS011;3781;42.272;22.658;2022-08-03T00:29:09;0.47;;;0.33;;
7479;SDS011;3781;42.272;22.658;2022-08-03T00:31:35;0.30;;;0.30;;
7479;SDS011;3781;42.272;22.658;2022-08-03T00:34:04;0.10;;;0.10;;
7479;SDS011;3781;42.272;22.658;2022-08-03T00:36:30;0.70;;;0.50;;
7479;SDS011;3781;42.272;22.658;2022-08-03T00:38:57;0.20;;;0.20;;
7479;SDS011;3781;42.272;22.658;2022-08-03T00:41:24;0.33;;;0.33;;
7479;SDS011;3781;42.272;22.658;2022-08-03T00:43:51;0.10;;;0.10;;
7479;SDS011;3781;42.272;22.658;2022-08-03T00:46:18;0.27;;;0.27;;
7479;SDS011;3781;42.272;22.658;2022-08-03T00:48:46;0.40;;;0.40;;
7479;SDS011;3781;42.272;22.658;2022-08-03T00:51:14;0.43;;;0.43;;
7479;SDS011;3781;42.272;22.658;2022-08-03T00:53:41;1.03;;;0.43;;
7479;SDS011;3781;42.272;22.658;2022-08-03T00:56:11;0.47;;;0.47;;
7479;SDS011;3781;42.272;22.658;2022-08-03T00:58:38;0.23;;;0.23;;
7479;SDS011;3781;42.272;22.658;2022-08-03T01:01:05;0.33;;;0.33;;
7479;SDS011;3781;42.272;22.658;2022-08-03T01:03:32;0.40;;;0.40;;
7479;SDS011;3781;42.272;22.658;2022-08-03T01:06:00;0.60;;;0.33;;
7479;SDS011;3781;42.272;22.658;2022-08-03T01:08:41;0.60;;;0.60;;
7479;SDS011;3781;42.272;22.658;2022-08-03T01:11:14;0.43;;;0.30;;
7479;SDS011;3781;42.272;22.658;2022-08-03T01:13:58;0.50;;;0.33;;
7479;SDS011;3781;42.272;22.658;2022-08-03T01:16:30;0.20;;;0.20;;
7479;SDS011;3781;42.272;22.658;2022-08-03T01:19:03;0.27;;;0.27;;
7479;SDS011;3781;42.272;22.658;2022-08-03T01:21:47;0.30;;;0.30;;
7479;SDS011;3781;42.272;22.658;2022-08-03T01:24:41;1.03;;;0.30;;
7479;SDS011;3781;42.272;22.658;2022-08-03T01:27:16;0.40;;;0.40;;
7479;SDS011;3781;42.272;22.658;2022-08-03T01:29:58;0.20;;;0.20;;
7479;SDS011;3781;42.272;22.658;2022-08-03T01:32:33;0.53;;;0.53;;
7479;SDS011;3781;42.272;22.658;2022-08-03T01:35:05;1.20;;;1.20;;
7479;SDS011;3781;42.272;22.658;2022-08-03T01:37:37;0.10;;;0.10;;
7479;SDS011;3781;42.272;22.658;2022-08-03T01:40:07;0.30;;;0.30;;
7479;SDS011;3781;42.272;22.658;2022-08-03T01:42:37;1.03;;;0.70;;
7479;SDS011;3781;42.272;22.658;2022-08-03T01:45:08;0.20;;;0.20;;
7479;SDS011;3781;42.272;22.658;2022-08-03T01:47:37;0.10;;;0.10;;
7479;SDS011;3781;42.272;22.658;2022-08-03T01:50:05;0.30;;;0.30;;
7479;SDS011;3781;42.272;22.658;2022-08-03T01:52:34;0.47;;;0.47;;
7479;SDS011;3781;42.272;22.658;2022-08-03T01:55:05;0.63;;;0.63;;
7479;SDS011;3781;42.272;22.658;2022-08-03T01:57:33;0.53;;;0.53;;
7479;SDS011;3781;42.272;22.658;2022-08-03T02:00:02;0.40;;;0.40;;
7479;SDS011;3781;42.272;22.658;2022-08-03T02:02:32;0.30;;;0.30;;
7479;SDS011;3781;42.272;22.658;2022-08-03T02:04:59;0.40;;;0.40;;
7479;SDS011;3781;42.272;22.658;2022-08-03T02:07:28;0.57;;;0.40;;
7479;SDS011;3781;42.272;22.658;2022-08-03T02:09:57;0.20;;;0.20;;
7479;SDS011;3781;42.272;22.658;2022-08-03T02:12:26;3.60;;;0.50;;
7479;SDS011;3781;42.272;22.658;2022-08-03T02:14:55;0.50;;;0.50;;
7479;SDS011;3781;42.272;22.658;2022-08-03T02:17:23;0.70;;;0.70;;
7479;SDS011;3781;42.272;22.658;2022-08-03T02:19:53;0.40;;;0.40;;
7479;SDS011;3781;42.272;22.658;2022-08-03T02:22:21;0.40;;;0.33;;
7479;SDS011;3781;42.272;22.658;2022-08-03T02:24:50;0.63;;;0.63;;
7479;SDS011;3781;42.272;22.658;2022-08-03T02:27:18;0.83;;;0.60;;
7479;SDS011;3781;42.272;22.658;2022-08-03T02:29:47;0.80;;;0.80;;
7479;SDS011;3781;42.272;22.658;2022-08-03T02:32:19;0.83;;;0.60;;
7479;SDS011;3781;42.272;22.658;2022-08-03T02:34:49;0.50;;;0.50;;
7479;SDS011;3781;42.272;22.658;2022-08-03T02:37:19;0.63;;;0.57;;
7479;SDS011;3781;42.272;22.658;2022-08-03T02:39:51;1.77;;;1.20;;
7479;SDS011;3781;42.272;22.658;2022-08-03T02:42:23;1.27;;;1.07;;
7479;SDS011;3781;42.272;22.658;2022-08-03T02:44:52;0.90;;;0.90;;
7479;SDS011;3781;42.272;22.658;2022-08-03T02:47:21;1.50;;;1.27;;
7479;SDS011;3781;42.272;22.658;2022-08-03T02:49:50;1.07;;;1.03;;
7479;SDS011;3781;42.272;22.658;2022-08-03T02:52:22;0.87;;;0.87;;
7479;SDS011;3781;42.272;22.658;2022-08-03T02:54:51;0.60;;;0.60;;
7479;SDS011;3781;42.272;22.658;2022-08-03T02:57:21;0.77;;;0.77;;
7479;SDS011;3781;42.272;22.658;2022-08-03T02:59:50;0.60;;;0.60;;
7479;SDS011;3781;42.272;22.658;2022-08-03T03:02:18;0.87;;;0.70;;
7479;SDS011;3781;42.272;22.658;2022-08-03T03:04:46;0.60;;;0.60;;
7479;SDS011;3781;42.272;22.658;2022-08-03T03:07:16;1.83;;;0.87;;
7479;SDS011;3781;42.272;22.658;2022-08-03T03:09:45;0.93;;;0.70;;
7479;SDS011;3781;42.272;22.658;2022-08-03T03:12:13;0.50;;;0.50;;
7479;SDS011;3781;42.272;22.658;2022-08-03T03:14:42;1.20;;;1.10;;
7479;SDS011;3781;42.272;22.658;2022-08-03T03:17:09;1.33;;;1.10;;
7479;SDS011;3781;42.272;22.658;2022-08-03T03:19:37;1.30;;;0.87;;
7479;SDS011;3781;42.272;22.658;2022-08-03T03:22:06;1.10;;;1.10;;
7479;SDS011;3781;42.272;22.658;2022-08-03T03:24:34;0.70;;;0.70;;
7479;SDS011;3781;42.272;22.658;2022-08-03T03:27:03;1.07;;;0.87;;
7479;SDS011;3781;42.272;22.658;2022-08-03T03:29:31;2.87;;;0.63;;
7479;SDS011;3781;42.272;22.658;2022-08-03T03:31:59;1.07;;;1.07;;
7479;SDS011;3781;42.272;22.658;2022-08-03T03:34:26;0.57;;;0.57;;
7479;SDS011;3781;42.272;22.658;2022-08-03T03:36:55;1.00;;;1.00;;
7479;SDS011;3781;42.272;22.658;2022-08-03T03:39:22;0.73;;;0.73;;
7479;SDS011;3781;42.272;22.658;2022-08-03T03:41:49;0.67;;;0.67;;
7479;SDS011;3781;42.272;22.658;2022-08-03T03:44:17;2.53;;;0.90;;
7479;SDS011;3781;42.272;22.658;2022-08-03T03:46:44;0.90;;;0.90;;
7479;SDS011;3781;42.272;22.658;2022-08-03T03:49:11;0.47;;;0.47;;
7479;SDS011;3781;42.272;22.658;2022-08-03T03:51:38;1.00;;;0.83;;
7479;SDS011;3781;42.272;22.658;2022-08-03T03:54:05;1.40;;;1.30;;
7479;SDS011;3781;42.272;22.658;2022-08-03T03:56:32;2.03;;;0.93;;
7479;SDS011;3781;42.272;22.658;2022-08-03T03:58:59;1.00;;;0.83;;
7479;SDS011;3781;42.272;22.658;2022-08-03T04:01:27;2.07;;;0.87;;
7479;SDS011;3781;42.272;22.658;2022-08-03T04:03:54;1.00;;;1.00;;
7479;SDS011;3781;42.272;22.658;2022-08-03T04:06:21;0.80;;;0.80;;
7479;SDS011;3781;42.272;22.658;2022-08-03T04:09:05;0.93;;;0.80;;
7479;SDS011;3781;42.272;22.658;2022-08-03T04:11:52;0.70;;;0.57;;
7479;SDS011;3781;42.272;22.658;2022-08-03T04:14:21;0.80;;;0.73;;
7479;SDS011;3781;42.272;22.658;2022-08-03T04:16:52;0.80;;;0.80;;
7479;SDS011;3781;42.272;22.658;2022-08-03T04:19:24;0.67;;;0.67;;
7479;SDS011;3781;42.272;22.658;2022-08-03T04:21:56;6.73;;;1.27;;
7479;SDS011;3781;42.272;22.658;2022-08-03T04:24:26;1.60;;;1.37;;
7479;SDS011;3781;42.272;22.658;2022-08-03T04:26:56;1.50;;;1.40;;
7479;SDS011;3781;42.272;22.658;2022-08-03T04:29:25;1.43;;;1.20;;
7479;SDS011;3781;42.272;22.658;2022-08-03T04:31:57;1.33;;;1.23;;
7479;SDS011;3781;42.272;22.658;2022-08-03T04:34:26;3.33;;;1.60;;
7479;SDS011;3781;42.272;22.658;2022-08-03T04:36:55;2.50;;;1.90;;
7479;SDS011;3781;42.272;22.658;2022-08-03T04:39:25;1.33;;;1.20;;
7479;SDS011;3781;42.272;22.658;2022-08-03T04:41:53;1.20;;;1.20;;
7479;SDS011;3781;42.272;22.658;2022-08-03T04:44:23;1.13;;;1.00;;
7479;SDS011;3781;42.272;22.658;2022-08-03T04:46:52;1.23;;;1.23;;
7479;SDS011;3781;42.272;22.658;2022-08-03T04:49:21;2.27;;;1.13;;
7479;SDS011;3781;42.272;22.658;2022-08-03T04:51:49;1.43;;;1.40;;
7479;SDS011;3781;42.272;22.658;2022-08-03T04:54:16;3.77;;;1.30;;
7479;SDS011;3781;42.272;22.658;2022-08-03T04:56:43;3.30;;;1.40;;
7479;SDS011;3781;42.272;22.658;2022-08-03T04:59:10;1.63;;;1.53;;
7479;SDS011;3781;42.272;22.658;2022-08-03T05:01:38;1.30;;;1.20;;
7479;SDS011;3781;42.272;22.658;2022-08-03T05:04:05;1.93;;;1.60;;
7479;SDS011;3781;42.272;22.658;2022-08-03T05:06:33;1.53;;;1.43;;
7479;SDS011;3781;42.272;22.658;2022-08-03T05:09:00;3.90;;;1.40;;
7479;SDS011;3781;42.272;22.658;2022-08-03T05:11:27;2.27;;;1.70;;
7479;SDS011;3781;42.272;22.658;2022-08-03T05:13:54;1.10;;;1.10;;
7479;SDS011;3781;42.272;22.658;2022-08-03T05:16:21;1.60;;;1.37;;
7479;SDS011;3781;42.272;22.658;2022-08-03T05:18:49;1.67;;;1.57;;
7479;SDS011;3781;42.272;22.658;2022-08-03T05:21:16;1.43;;;1.33;;
7479;SDS011;3781;42.272;22.658;2022-08-03T05:23:44;1.73;;;1.23;;
7479;SDS011;3781;42.272;22.658;2022-08-03T05:26:11;1.73;;;1.63;;
7479;SDS011;3781;42.272;22.658;2022-08-03T05:28:38;1.27;;;1.27;;
7479;SDS011;3781;42.272;22.658;2022-08-03T05:31:05;1.67;;;1.42;;
7479;SDS011;3781;42.272;22.658;2022-08-03T05:33:32;1.70;;;1.60;;
7479;SDS011;3781;42.272;22.658;2022-08-03T05:35:58;1.48;;;1.38;;
7479;SDS011;3781;42.272;22.658;2022-08-03T05:38:25;3.53;;;1.30;;
7479;SDS011;3781;42.272;22.658;2022-08-03T05:40:54;2.10;;;1.45;;
7479;SDS011;3781;42.272;22.658;2022-08-03T05:43:21;1.48;;;1.38;;
7479;SDS011;3781;42.272;22.658;2022-08-03T05:45:48;1.10;;;1.10;;
7479;SDS011;3781;42.272;22.658;2022-08-03T05:48:14;1.42;;;1.30;;
7479;SDS011;3781;42.272;22.658;2022-08-03T05:50:41;1.60;;;1.40;;
7479;SDS011;3781;42.272;22.658;2022-08-03T05:53:08;1.35;;;1.35;;
7479;SDS011;3781;42.272;22.658;2022-08-03T05:55:35;2.67;;;1.27;;
7479;SDS011;3781;42.272;22.658;2022-08-03T05:58:03;3.83;;;1.27;;
7479;SDS011;3781;42.272;22.658;2022-08-03T06:00:30;1.43;;;1.33;;
7479;SDS011;3781;42.272;22.658;2022-08-03T06:02:57;1.00;;;1.00;;
7479;SDS011;3781;42.272;22.658;2022-08-03T06:05:24;1.50;;;1.40;;
7479;SDS011;3781;42.272;22.658;2022-08-03T06:07:52;1.13;;;1.10;;
7479;SDS011;3781;42.272;22.658;2022-08-03T06:10:19;1.03;;;1.03;;
7479;SDS011;3781;42.272;22.658;2022-08-03T06:12:46;0.97;;;0.93;;
7479;SDS011;3781;42.272;22.658;2022-08-03T06:15:15;2.57;;;1.23;;
7479;SDS011;3781;42.272;22.658;2022-08-03T06:17:46;2.37;;;1.80;;
7479;SDS011;3781;42.272;22.658;2022-08-03T06:20:15;1.20;;;1.10;;
7479;SDS011;3781;42.272;22.658;2022-08-03T06:22:42;1.33;;;1.23;;
7479;SDS011;3781;42.272;22.658;2022-08-03T06:25:09;1.20;;;1.10;;
7479;SDS011;3781;42.272;22.658;2022-08-03T06:27:36;1.43;;;1.30;;
7479;SDS011;3781;42.272;22.658;2022-08-03T06:30:05;1.30;;;1.20;;
7479;SDS011;3781;42.272;22.658;2022-08-03T06:32:36;1.70;;;1.60;;
7479;SDS011;3781;42.272;22.658;2022-08-03T06:35:03;2.27;;;1.10;;
7479;SDS011;3781;42.272;22.658;2022-08-03T06:37:30;2.70;;;0.80;;
7479;SDS011;3781;42.272;22.658;2022-08-03T06:39:57;1.23;;;1.13;;
7479;SDS011;3781;42.272;22.658;2022-08-03T06:42:23;1.53;;;1.43;;
7479;SDS011;3781;42.272;22.658;2022-08-03T06:44:50;1.77;;;1.67;;
7479;SDS011;3781;42.272;22.658;2022-08-03T06:47:17;1.13;;;1.13;;
7479;SDS011;3781;42.272;22.658;2022-08-03T06:49:45;1.60;;;1.40;;
7479;SDS011;3781;42.272;22.658;2022-08-03T06:52:12;1.67;;;1.57;;
7479;SDS011;3781;42.272;22.658;2022-08-03T06:54:39;3.03;;;1.30;;
7479;SDS011;3781;42.272;22.658;2022-08-03T06:57:05;1.47;;;1.37;;
7479;SDS011;3781;42.272;22.658;2022-08-03T06:59:35;1.43;;;1.27;;
7479;SDS011;3781;42.272;22.658;2022-08-03T07:02:02;1.67;;;1.57;;
7479;SDS011;3781;42.272;22.658;2022-08-03T07:04:29;1.07;;;1.07;;
7479;SDS011;3781;42.272;22.658;2022-08-03T07:06:57;1.43;;;1.33;;
7479;SDS011;3781;42.272;22.658;2022-08-03T07:09:24;1.37;;;1.10;;
7479;SDS011;3781;42.272;22.658;2022-08-03T07:11:51;1.67;;;1.50;;
7479;SDS011;3781;42.272;22.658;2022-08-03T07:14:18;3.30;;;1.33;;
7479;SDS011;3781;42.272;22.658;2022-08-03T07:16:45;1.47;;;1.37;;
7479;SDS011;3781;42.272;22.658;2022-08-03T07:19:11;4.63;;;1.63;;
7479;SDS011;3781;42.272;22.658;2022-08-03T07:21:38;2.83;;;2.13;;
7479;SDS011;3781;42.272;22.658;2022-08-03T07:24:06;4.87;;;1.10;;
7479;SDS011;3781;42.272;22.658;2022-08-03T07:26:33;1.13;;;1.03;;
7479;SDS011;3781;42.272;22.658;2022-08-03T07:29:00;0.93;;;0.93;;
7479;SDS011;3781;42.272;22.658;2022-08-03T07:31:27;3.00;;;1.20;;
7479;SDS011;3781;42.272;22.658;2022-08-03T07:33:54;1.00;;;1.00;;
7479;SDS011;3781;42.272;22.658;2022-08-03T07:36:21;1.77;;;1.10;;
7479;SDS011;3781;42.272;22.658;2022-08-03T07:38:48;1.30;;;1.00;;
7479;SDS011;3781;42.272;22.658;2022-08-03T07:41:17;2.03;;;1.20;;
7479;SDS011;3781;42.272;22.658;2022-08-03T07:43:43;1.20;;;1.20;;
7479;SDS011;3781;42.272;22.658;2022-08-03T07:46:10;0.87;;;0.87;;
7479;SDS011;3781;42.272;22.658;2022-08-03T07:48:37;1.90;;;1.13;;
7479;SDS011;3781;42.272;22.658;2022-08-03T07:51:04;0.97;;;0.97;;
7479;SDS011;3781;42.272;22.658;2022-08-03T07:53:31;0.93;;;0.93;;
7479;SDS011;3781;42.272;22.658;2022-08-03T07:55:57;1.20;;;1.10;;
7479;SDS011;3781;42.272;22.658;2022-08-03T07:58:26;0.63;;;0.63;;
7479;SDS011;3781;42.272;22.658;2022-08-03T08:00:52;0.80;;;0.80;;
7479;SDS011;3781;42.272;22.658;2022-08-03T08:03:19;0.80;;;0.80;;
7479;SDS011;3781;42.272;22.658;2022-08-03T08:05:47;0.87;;;0.87;;
7479;SDS011;3781;42.272;22.658;2022-08-03T08:08:14;0.80;;;0.80;;
7479;SDS011;3781;42.272;22.658;2022-08-03T08:10:40;0.60;;;0.60;;
7479;SDS011;3781;42.272;22.658;2022-08-03T08:13:07;2.42;;;0.85;;
7479;SDS011;3781;42.272;22.658;2022-08-03T08:15:35;0.67;;;0.67;;
7479;SDS011;3781;42.272;22.658;2022-08-03T08:18:02;1.10;;;0.90;;
7479;SDS011;3781;42.272;22.658;2022-08-03T08:20:30;0.90;;;0.90;;
7479;SDS011;3781;42.272;22.658;2022-08-03T08:22:59;0.60;;;0.60;;
7479;SDS011;3781;42.272;22.658;2022-08-03T08:25:27;0.68;;;0.65;;
7479;SDS011;3781;42.272;22.658;2022-08-03T08:27:55;0.87;;;0.87;;
7479;SDS011;3781;42.272;22.658;2022-08-03T08:30:22;1.23;;;1.02;;
7479;SDS011;3781;42.272;22.658;2022-08-03T08:32:51;0.80;;;0.73;;
7479;SDS011;3781;42.272;22.658;2022-08-03T08:35:18;1.10;;;1.10;;
7479;SDS011;3781;42.272;22.658;2022-08-03T08:37:44;1.17;;;1.08;;
7479;SDS011;3781;42.272;22.658;2022-08-03T08:40:11;1.20;;;1.00;;
7479;SDS011;3781;42.272;22.658;2022-08-03T08:42:39;1.17;;;1.08;;
7479;SDS011;3781;42.272;22.658;2022-08-03T08:45:07;1.00;;;1.00;;
7479;SDS011;3781;42.272;22.658;2022-08-03T08:47:36;1.35;;;1.25;;
7479;SDS011;3781;42.272;22.658;2022-08-03T08:50:06;1.27;;;1.17;;
7479;SDS011;3781;42.272;22.658;2022-08-03T08:52:34;1.13;;;0.98;;
7479;SDS011;3781;42.272;22.658;2022-08-03T08:55:02;2.95;;;0.90;;
7479;SDS011;3781;42.272;22.658;2022-08-03T08:57:32;0.55;;;0.55;;
7479;SDS011;3781;42.272;22.658;2022-08-03T09:00:02;1.30;;;1.02;;
7479;SDS011;3781;42.272;22.658;2022-08-03T09:02:29;1.10;;;1.00;;
7479;SDS011;3781;42.272;22.658;2022-08-03T09:04:56;0.80;;;0.77;;
7479;SDS011;3781;42.272;22.658;2022-08-03T09:07:26;1.20;;;1.10;;
7479;SDS011;3781;42.272;22.658;2022-08-03T09:09:53;0.90;;;0.90;;
7479;SDS011;3781;42.272;22.658;2022-08-03T09:12:20;1.00;;;1.00;;
7479;SDS011;3781;42.272;22.658;2022-08-03T09:14:48;2.17;;;0.70;;
7479;SDS011;3781;42.272;22.658;2022-08-03T09:17:15;0.88;;;0.88;;
7479;SDS011;3781;42.272;22.658;2022-08-03T09:19:42;1.10;;;0.80;;
7479;SDS011;3781;42.272;22.658;2022-08-03T09:22:10;0.95;;;0.95;;
7479;SDS011;3781;42.272;22.658;2022-08-03T09:24:52;0.90;;;0.90;;
7479;SDS011;3781;42.272;22.658;2022-08-03T09:27:21;0.80;;;0.80;;
7479;SDS011;3781;42.272;22.658;2022-08-03T09:29:48;0.90;;;0.90;;
7479;SDS011;3781;42.272;22.658;2022-08-03T09:32:18;0.88;;;0.88;;
7479;SDS011;3781;42.272;22.658;2022-08-03T09:34:47;1.20;;;1.10;;
7479;SDS011;3781;42.272;22.658;2022-08-03T09:37:15;0.88;;;0.88;;
7479;SDS011;3781;42.272;22.658;2022-08-03T09:39:45;0.88;;;0.88;;
7479;SDS011;3781;42.272;22.658;2022-08-03T09:42:13;3.60;;;1.10;;
7479;SDS011;3781;42.272;22.658;2022-08-03T09:44:41;0.68;;;0.68;;
7479;SDS011;3781;42.272;22.658;2022-08-03T09:47:09;0.82;;;0.80;;
7479;SDS011;3781;42.272;22.658;2022-08-03T09:49:37;0.95;;;0.95;;
7479;SDS011;3781;42.272;22.658;2022-08-03T09:52:12;1.25;;;1.15;;
7479;SDS011;3781;42.272;22.658;2022-08-03T09:54:40;0.75;;;0.75;;
7479;SDS011;3781;42.272;22.658;2022-08-03T09:57:09;0.80;;;0.80;;
7479;SDS011;3781;42.272;22.658;2022-08-03T09:59:47;0.95;;;0.75;;
7479;SDS011;3781;42.272;22.658;2022-08-03T10:02:20;0.77;;;0.77;;
7479;SDS011;3781;42.272;22.658;2022-08-03T10:04:49;0.73;;;0.73;;
7479;SDS011;3781;42.272;22.658;2022-08-03T10:07:17;1.08;;;0.90;;
7479;SDS011;3781;42.272;22.658;2022-08-03T10:09:52;0.80;;;0.80;;
7479;SDS011;3781;42.272;22.658;2022-08-03T10:12:22;0.70;;;0.70;;
7479;SDS011;3781;42.272;22.658;2022-08-03T10:14:50;0.77;;;0.77;;
7479;SDS011;3781;42.272;22.658;2022-08-03T10:17:17;0.80;;;0.80;;
7479;SDS011;3781;42.272;22.658;2022-08-03T10:19:44;0.40;;;0.40;;
7479;SDS011;3781;42.272;22.658;2022-08-03T10:22:13;0.80;;;0.80;;
7479;SDS011;3781;42.272;22.658;2022-08-03T10:24:45;0.52;;;0.50;;
7479;SDS011;3781;42.272;22.658;2022-08-03T10:27:15;0.77;;;0.77;;
7479;SDS011;3781;42.272;22.658;2022-08-03T10:29:46;0.60;;;0.60;;
7479;SDS011;3781;42.272;22.658;2022-08-03T10:32:18;0.52;;;0.52;;
7479;SDS011;3781;42.272;22.658;2022-08-03T10:34:49;0.70;;;0.70;;
7479;SDS011;3781;42.272;22.658;2022-08-03T10:37:16;0.75;;;0.73;;
7479;SDS011;3781;42.272;22.658;2022-08-03T10:39:46;0.70;;;0.70;;
7479;SDS011;3781;42.272;22.658;2022-08-03T10:42:19;0.55;;;0.55;;
7479;SDS011;3781;42.272;22.658;2022-08-03T10:44:51;0.50;;;0.50;;
7479;SDS011;3781;42.272;22.658;2022-08-03T10:47:23;0.70;;;0.70;;
7479;SDS011;3781;42.272;22.658;2022-08-03T10:49:51;0.50;;;0.50;;
7479;SDS011;3781;42.272;22.658;2022-08-03T10:52:18;0.63;;;0.63;;
7479;SDS011;3781;42.272;22.658;2022-08-03T10:54:45;0.60;;;0.60;;
7479;SDS011;3781;42.272;22.658;2022-08-03T10:57:42;1.85;;;0.52;;
7479;SDS011;3781;42.272;22.658;2022-08-03T11:00:15;6.05;;;0.85;;
7479;SDS011;3781;42.272;22.658;2022-08-03T11:05:37;0.55;;;0.55;;
7479;SDS011;3781;42.272;22.658;2022-08-03T11:13:56;0.70;;;0.70;;
7479;SDS011;3781;42.272;22.658;2022-08-03T11:16:25;0.60;;;0.60;;
7479;SDS011;3781;42.272;22.658;2022-08-03T11:18:56;0.70;;;0.70;;
7479;SDS011;3781;42.272;22.658;2022-08-03T11:27:24;0.60;;;0.60;;
7479;SDS011;3781;42.272;22.658;2022-08-03T11:29:53;0.80;;;0.80;;
7479;SDS011;3781;42.272;22.658;2022-08-03T11:35:27;0.55;;;0.55;;
7479;SDS011;3781;42.272;22.658;2022-08-03T11:38:05;0.63;;;0.63;;
7479;SDS011;3781;42.272;22.658;2022-08-03T11:40:33;0.50;;;0.50;;
7479;SDS011;3781;42.272;22.658;2022-08-03T11:43:02;0.60;;;0.60;;
7479;SDS011;3781;42.272;22.658;2022-08-03T11:45:30;0.80;;;0.80;;
7479;SDS011;3781;42.272;22.658;2022-08-03T11:47:57;0.60;;;0.60;;
7479;SDS011;3781;42.272;22.658;2022-08-03T11:50:37;0.70;;;0.70;;
7479;SDS011;3781;42.272;22.658;2022-08-03T11:53:04;0.80;;;0.80;;
7479;SDS011;3781;42.272;22.658;2022-08-03T11:55:32;0.50;;;0.50;;
7479;SDS011;3781;42.272;22.658;2022-08-03T11:58:01;0.50;;;0.50;;
7479;SDS011;3781;42.272;22.658;2022-08-03T12:00:28;0.55;;;0.55;;
7479;SDS011;3781;42.272;22.658;2022-08-03T12:02:57;0.65;;;0.65;;
7479;SDS011;3781;42.272;22.658;2022-08-03T12:05:33;0.73;;;0.73;;
7479;SDS011;3781;42.272;22.658;2022-08-03T12:08:01;0.80;;;0.80;;
7479;SDS011;3781;42.272;22.658;2022-08-03T12:10:28;0.70;;;0.70;;
7479;SDS011;3781;42.272;22.658;2022-08-03T12:12:55;0.45;;;0.45;;
7479;SDS011;3781;42.272;22.658;2022-08-03T12:15:26;0.80;;;0.80;;
7479;SDS011;3781;42.272;22.658;2022-08-03T12:17:55;0.50;;;0.50;;
7479;SDS011;3781;42.272;22.658;2022-08-03T12:20:25;0.60;;;0.60;;
7479;SDS011;3781;42.272;22.658;2022-08-03T12:22:53;0.75;;;0.75;;
7479;SDS011;3781;42.272;22.658;2022-08-03T12:25:20;0.95;;;0.90;;
7479;SDS011;3781;42.272;22.658;2022-08-03T12:27:49;0.57;;;0.57;;
7479;SDS011;3781;42.272;22.658;2022-08-03T12:30:16;0.60;;;0.60;;
7479;SDS011;3781;42.272;22.658;2022-08-03T12:32:43;0.70;;;0.70;;
7479;SDS011;3781;42.272;22.658;2022-08-03T12:35:20;0.65;;;0.65;;
7479;SDS011;3781;42.272;22.658;2022-08-03T12:37:49;0.80;;;0.80;;
7479;SDS011;3781;42.272;22.658;2022-08-03T12:40:23;0.93;;;0.93;;
7479;SDS011;3781;42.272;22.658;2022-08-03T12:42:51;0.65;;;0.65;;
7479;SDS011;3781;42.272;22.658;2022-08-03T12:45:19;0.77;;;0.77;;
7479;SDS011;3781;42.272;22.658;2022-08-03T12:47:53;1.65;;;1.55;;
7479;SDS011;3781;42.272;22.658;2022-08-03T12:50:25;0.85;;;0.85;;
7479;SDS011;3781;42.272;22.658;2022-08-03T12:52:54;0.73;;;0.73;;
7479;SDS011;3781;42.272;22.658;2022-08-03T12:55:22;0.50;;;0.50;;
7479;SDS011;3781;42.272;22.658;2022-08-03T12:57:51;0.70;;;0.70;;
7479;SDS011;3781;42.272;22.658;2022-08-03T13:00:18;0.90;;;0.90;;
7479;SDS011;3781;42.272;22.658;2022-08-03T13:02:46;0.70;;;0.70;;
7479;SDS011;3781;42.272;22.658;2022-08-03T13:05:24;0.57;;;0.57;;
7479;SDS011;3781;42.272;22.658;2022-08-03T13:07:51;0.73;;;0.73;;
7479;SDS011;3781;42.272;22.658;2022-08-03T13:10:27;0.70;;;0.70;;
7479;SDS011;3781;42.272;22.658;2022-08-03T13:12:55;0.70;;;0.70;;
7479;SDS011;3781;42.272;22.658;2022-08-03T13:15:24;1.00;;;1.00;;
7479;SDS011;3781;42.272;22.658;2022-08-03T13:17:52;1.10;;;1.10;;
7479;SDS011;3781;42.272;22.658;2022-08-03T13:20:19;0.95;;;0.95;;
7479;SDS011;3781;42.272;22.658;2022-08-03T13:22:47;0.93;;;0.93;;
7479;SDS011;3781;42.272;22.658;2022-08-03T13:25:14;0.95;;;0.95;;
7479;SDS011;3781;42.272;22.658;2022-08-03T13:27:42;1.10;;;1.10;;
7479;SDS011;3781;42.272;22.658;2022-08-03T13:30:09;1.42;;;1.33;;
7479;SDS011;3781;42.272;22.658;2022-08-03T13:32:36;1.00;;;1.00;;
7479;SDS011;3781;42.272;22.658;2022-08-03T13:35:03;1.05;;;1.05;;
7479;SDS011;3781;42.272;22.658;2022-08-03T13:37:31;2.13;;;1.30;;
7479;SDS011;3781;42.272;22.658;2022-08-03T13:39:58;1.13;;;1.13;;
7479;SDS011;3781;42.272;22.658;2022-08-03T13:42:25;1.48;;;1.38;;
7479;SDS011;3781;42.272;22.658;2022-08-03T13:44:54;1.80;;;1.70;;
7479;SDS011;3781;42.272;22.658;2022-08-03T13:47:20;2.20;;;2.03;;
7479;SDS011;3781;42.272;22.658;2022-08-03T13:49:47;1.60;;;1.50;;
7479;SDS011;3781;42.272;22.658;2022-08-03T13:52:16;1.65;;;1.30;;
7479;SDS011;3781;42.272;22.658;2022-08-03T13:54:42;1.65;;;1.55;;
7479;SDS011;3781;42.272;22.658;2022-08-03T13:57:09;3.35;;;2.10;;
7479;SDS011;3781;42.272;22.658;2022-08-03T13:59:36;1.63;;;1.25;;
7479;SDS011;3781;42.272;22.658;2022-08-03T14:02:04;1.17;;;1.17;;
7479;SDS011;3781;42.272;22.658;2022-08-03T14:04:31;1.45;;;1.27;;
7479;SDS011;3781;42.272;22.658;2022-08-03T14:06:58;1.83;;;1.00;;
7479;SDS011;3781;42.272;22.658;2022-08-03T14:09:25;0.98;;;0.98;;
7479;SDS011;3781;42.272;22.658;2022-08-03T14:11:51;1.40;;;1.30;;
7479;SDS011;3781;42.272;22.658;2022-08-03T14:14:19;1.48;;;1.40;;
7479;SDS011;3781;42.272;22.658;2022-08-03T14:16:46;1.05;;;1.05;;
7479;SDS011;3781;42.272;22.658;2022-08-03T14:19:14;1.33;;;1.30;;
7479;SDS011;3781;42.272;22.658;2022-08-03T14:21:41;1.52;;;1.50;;
7479;SDS011;3781;42.272;22.658;2022-08-03T14:24:07;1.30;;;1.30;;
7479;SDS011;3781;42.272;22.658;2022-08-03T14:26:34;1.10;;;1.10;;
7479;SDS011;3781;42.272;22.658;2022-08-03T14:29:01;1.63;;;1.53;;
7479;SDS011;3781;42.272;22.658;2022-08-03T14:31:28;2.90;;;2.70;;
7479;SDS011;3781;42.272;22.658;2022-08-03T14:33:55;2.20;;;2.00;;
7479;SDS011;3781;42.272;22.658;2022-08-03T14:36:23;2.30;;;1.52;;
7479;SDS011;3781;42.272;22.658;2022-08-03T14:38:50;1.65;;;1.27;;
7479;SDS011;3781;42.272;22.658;2022-08-03T14:41:17;1.38;;;1.23;;
7479;SDS011;3781;42.272;22.658;2022-08-03T14:43:44;4.10;;;1.15;;
7479;SDS011;3781;42.272;22.658;2022-08-03T14:46:11;2.10;;;2.00;;
7479;SDS011;3781;42.272;22.658;2022-08-03T14:48:38;1.38;;;1.27;;
7479;SDS011;3781;42.272;22.658;2022-08-03T14:51:04;1.50;;;1.40;;
7479;SDS011;3781;42.272;22.658;2022-08-03T14:53:34;1.10;;;1.00;;
7479;SDS011;3781;42.272;22.658;2022-08-03T14:56:00;1.40;;;1.30;;
7479;SDS011;3781;42.272;22.658;2022-08-03T14:58:27;3.17;;;1.83;;
7479;SDS011;3781;42.272;22.658;2022-08-03T15:00:54;1.77;;;1.67;;
7479;SDS011;3781;42.272;22.658;2022-08-03T15:03:22;1.20;;;1.10;;
7479;SDS011;3781;42.272;22.658;2022-08-03T15:05:50;1.57;;;1.47;;
7479;SDS011;3781;42.272;22.658;2022-08-03T15:08:17;1.67;;;1.53;;
7479;SDS011;3781;42.272;22.658;2022-08-03T15:10:45;1.37;;;1.27;;
7479;SDS011;3781;42.272;22.658;2022-08-03T15:13:12;1.97;;;1.77;;
7479;SDS011;3781;42.272;22.658;2022-08-03T15:15:39;0.90;;;0.90;;
7479;SDS011;3781;42.272;22.658;2022-08-03T15:18:06;1.53;;;1.43;;
7479;SDS011;3781;42.272;22.658;2022-08-03T15:20:33;2.00;;;1.60;;
7479;SDS011;3781;42.272;22.658;2022-08-03T15:23:00;1.73;;;1.63;;
7479;SDS011;3781;42.272;22.658;2022-08-03T15:25:27;1.40;;;1.37;;
7479;SDS011;3781;42.272;22.658;2022-08-03T15:27:55;2.33;;;1.97;;